sensor_id;sensor_type;location;lat;lon;timestamp;temperature;humidity
816;DHT22;25928;51.062;13.752;2023-05-18T00:00:20;12.60;99.90
816;DHT22;25928;51.062;13.752;2023-05-18T00:02:46;12.50;99.90
816;DHT22;25928;51.062;13.752;2023-05-18T00:05:15;12.40;99.90
816;DHT22;25928;51.062;13.752;2023-05-18T00:07:43;12.40;99.90
816;DHT22;25928;51.062;13.752;2023-05-18T00:10:09;12.40;99.90
816;DHT22;25928;51.062;13.752;2023-05-18T00:12:35;12.40;99.90
816;DHT22;25928;51.062;13.752;2023-05-18T00:15:01;12.40;99.90
816;DHT22;25928;51.062;13.752;2023-05-18T00:17:27;12.30;99.90
816;DHT22;25928;51.062;13.752;2023-05-18T00:19:53;12.30;99.90
816;DHT22;25928;51.062;13.752;2023-05-18T00:22:18;12.20;99.90
816;DHT22;25928;51.062;13.752;2023-05-18T00:24:45;12.30;99.90
816;DHT22;25928;51.062;13.752;2023-05-18T00:27:11;12.40;99.90
816;DHT22;25928;51.062;13.752;2023-05-18T00:29:37;12.30;99.90
816;DHT22;25928;51.062;13.752;2023-05-18T00:32:02;12.30;99.90
816;DHT22;25928;51.062;13.752;2023-05-18T00:34:28;12.20;99.90
816;DHT22;25928;51.062;13.752;2023-05-18T00:36:54;12.20;99.90
816;DHT22;25928;51.062;13.752;2023-05-18T00:39:19;12.20;99.90
816;DHT22;25928;51.062;13.752;2023-05-18T00:41:45;12.20;99.90
816;DHT22;25928;51.062;13.752;2023-05-18T00:44:11;12.00;99.90
816;DHT22;25928;51.062;13.752;2023-05-18T00:46:36;11.90;99.90
816;DHT22;25928;51.062;13.752;2023-05-18T00:49:02;11.90;99.90
816;DHT22;25928;51.062;13.752;2023-05-18T00:51:28;11.90;99.90
816;DHT22;25928;51.062;13.752;2023-05-18T00:53:56;11.80;99.90
816;DHT22;25928;51.062;13.752;2023-05-18T00:56:23;11.70;99.90
816;DHT22;25928;51.062;13.752;2023-05-18T00:58:52;11.80;99.90
816;DHT22;25928;51.062;13.752;2023-05-18T01:01:31;12.00;99.90
816;DHT22;25928;51.062;13.752;2023-05-18T01:04:01;11.80;99.90
816;DHT22;25928;51.062;13.752;2023-05-18T01:06:29;11.70;99.90
816;DHT22;25928;51.062;13.752;2023-05-18T01:09:01;11.70;99.90
816;DHT22;25928;51.062;13.752;2023-05-18T01:14:48;11.70;99.90
816;DHT22;25928;51.062;13.752;2023-05-18T01:17:49;11.70;99.90
816;DHT22;25928;51.062;13.752;2023-05-18T01:20:21;11.70;99.90
816;DHT22;25928;51.062;13.752;2023-05-18T01:28:24;11.50;99.90
816;DHT22;25928;51.062;13.752;2023-05-18T01:30:54;11.50;99.90
816;DHT22;25928;51.062;13.752;2023-05-18T01:33:20;11.40;99.90
816;DHT22;25928;51.062;13.752;2023-05-18T01:35:46;11.40;99.90
816;DHT22;25928;51.062;13.752;2023-05-18T01:38:14;11.40;99.90
816;DHT22;25928;51.062;13.752;2023-05-18T01:43:27;11.30;99.90
816;DHT22;25928;51.062;13.752;2023-05-18T01:45:57;11.30;99.90
816;DHT22;25928;51.062;13.752;2023-05-18T01:48:26;11.10;99.90
816;DHT22;25928;51.062;13.752;2023-05-18T01:50:54;11.10;99.90
816;DHT22;25928;51.062;13.752;2023-05-18T01:55:51;11.10;99.90
816;DHT22;25928;51.062;13.752;2023-05-18T01:58:19;11.10;99.90
816;DHT22;25928;51.062;13.752;2023-05-18T02:00:46;11.10;99.90
816;DHT22;25928;51.062;13.752;2023-05-18T02:03:13;11.30;99.90
816;DHT22;25928;51.062;13.752;2023-05-18T02:05:38;11.10;99.90
816;DHT22;25928;51.062;13.752;2023-05-18T02:08:04;11.20;99.90
816;DHT22;25928;51.062;13.752;2023-05-18T02:10:30;11.10;99.90
816;DHT22;25928;51.062;13.752;2023-05-18T02:12:56;11.00;99.90
816;DHT22;25928;51.062;13.752;2023-05-18T02:15:21;11.00;99.90
816;DHT22;25928;51.062;13.752;2023-05-18T02:17:47;11.00;99.90
816;DHT22;25928;51.062;13.752;2023-05-18T02:20:13;10.90;99.90
816;DHT22;25928;51.062;13.752;2023-05-18T02:22:42;10.70;99.90
816;DHT22;25928;51.062;13.752;2023-05-18T02:25:08;10.60;99.90
816;DHT22;25928;51.062;13.752;2023-05-18T02:27:34;10.60;99.90
816;DHT22;25928;51.062;13.752;2023-05-18T02:30:01;10.70;99.90
816;DHT22;25928;51.062;13.752;2023-05-18T02:32:29;10.70;99.90
816;DHT22;25928;51.062;13.752;2023-05-18T02:34:57;10.60;99.90
816;DHT22;25928;51.062;13.752;2023-05-18T02:37:26;10.60;99.90
816;DHT22;25928;51.062;13.752;2023-05-18T02:39:52;10.70;99.90
816;DHT22;25928;51.062;13.752;2023-05-18T02:42:18;10.70;99.90
816;DHT22;25928;51.062;13.752;2023-05-18T02:44:43;10.60;99.90
816;DHT22;25928;51.062;13.752;2023-05-18T02:47:09;10.70;99.90
816;DHT22;25928;51.062;13.752;2023-05-18T02:49:34;10.60;99.90
816;DHT22;25928;51.062;13.752;2023-05-18T02:52:00;10.60;99.90
816;DHT22;25928;51.062;13.752;2023-05-18T02:54:26;10.50;99.90
816;DHT22;25928;51.062;13.752;2023-05-18T02:56:51;10.50;99.90
816;DHT22;25928;51.062;13.752;2023-05-18T02:59:21;10.50;99.90
816;DHT22;25928;51.062;13.752;2023-05-18T03:01:46;10.50;99.90
816;DHT22;25928;51.062;13.752;2023-05-18T03:04:12;10.40;1.00
816;DHT22;25928;51.062;13.752;2023-05-18T03:06:38;10.40;1.00
816;DHT22;25928;51.062;13.752;2023-05-18T03:09:04;10.40;1.00
816;DHT22;25928;51.062;13.752;2023-05-18T03:11:30;10.40;1.00
816;DHT22;25928;51.062;13.752;2023-05-18T03:13:56;10.40;1.00
816;DHT22;25928;51.062;13.752;2023-05-18T03:16:21;10.30;1.00
816;DHT22;25928;51.062;13.752;2023-05-18T03:18:55;10.30;1.00
816;DHT22;25928;51.062;13.752;2023-05-18T03:21:23;10.40;1.00
816;DHT22;25928;51.062;13.752;2023-05-18T03:23:48;10.30;1.00
816;DHT22;25928;51.062;13.752;2023-05-18T03:26:15;10.30;1.00
816;DHT22;25928;51.062;13.752;2023-05-18T03:28:41;10.40;1.00
816;DHT22;25928;51.062;13.752;2023-05-18T03:31:06;10.40;1.00
816;DHT22;25928;51.062;13.752;2023-05-18T03:33:32;10.30;1.00
816;DHT22;25928;51.062;13.752;2023-05-18T03:36:02;10.40;1.00
816;DHT22;25928;51.062;13.752;2023-05-18T03:38:28;10.40;1.00
816;DHT22;25928;51.062;13.752;2023-05-18T03:40:53;10.40;99.90
816;DHT22;25928;51.062;13.752;2023-05-18T03:43:20;10.30;99.90
816;DHT22;25928;51.062;13.752;2023-05-18T03:45:45;10.30;99.90
816;DHT22;25928;51.062;13.752;2023-05-18T03:48:11;10.10;99.90
816;DHT22;25928;51.062;13.752;2023-05-18T03:50:36;9.90;1.00
816;DHT22;25928;51.062;13.752;2023-05-18T03:53:02;9.80;1.00
816;DHT22;25928;51.062;13.752;2023-05-18T03:55:28;9.80;1.00
816;DHT22;25928;51.062;13.752;2023-05-18T03:57:54;9.80;1.00
816;DHT22;25928;51.062;13.752;2023-05-18T04:00:20;9.90;1.00
816;DHT22;25928;51.062;13.752;2023-05-18T04:02:46;9.90;1.00
816;DHT22;25928;51.062;13.752;2023-05-18T04:05:11;10.20;1.00
816;DHT22;25928;51.062;13.752;2023-05-18T04:07:37;10.30;99.90
816;DHT22;25928;51.062;13.752;2023-05-18T04:10:11;10.40;99.90
816;DHT22;25928;51.062;13.752;2023-05-18T04:12:38;10.40;99.90
816;DHT22;25928;51.062;13.752;2023-05-18T04:15:04;10.40;99.90
816;DHT22;25928;51.062;13.752;2023-05-18T04:17:30;10.40;99.90
816;DHT22;25928;51.062;13.752;2023-05-18T04:19:56;10.60;99.90
816;DHT22;25928;51.062;13.752;2023-05-18T04:22:22;10.70;99.90
816;DHT22;25928;51.062;13.752;2023-05-18T04:24:47;10.70;99.90
816;DHT22;25928;51.062;13.752;2023-05-18T04:27:13;10.90;99.90
816;DHT22;25928;51.062;13.752;2023-05-18T04:29:39;11.00;99.90
816;DHT22;25928;51.062;13.752;2023-05-18T04:32:08;11.10;99.90
816;DHT22;25928;51.062;13.752;2023-05-18T04:34:35;11.20;99.90
816;DHT22;25928;51.062;13.752;2023-05-18T04:37:05;11.30;99.90
816;DHT22;25928;51.062;13.752;2023-05-18T04:39:31;11.30;99.90
816;DHT22;25928;51.062;13.752;2023-05-18T04:41:59;10.10;99.90
816;DHT22;25928;51.062;13.752;2023-05-18T04:44:28;11.30;99.90
816;DHT22;25928;51.062;13.752;2023-05-18T04:46:54;11.30;99.90
816;DHT22;25928;51.062;13.752;2023-05-18T04:49:20;11.00;99.90
816;DHT22;25928;51.062;13.752;2023-05-18T04:51:50;11.00;99.90
816;DHT22;25928;51.062;13.752;2023-05-18T04:54:21;10.80;99.90
816;DHT22;25928;51.062;13.752;2023-05-18T04:56:47;10.70;99.90
816;DHT22;25928;51.062;13.752;2023-05-18T04:59:13;10.80;99.90
816;DHT22;25928;51.062;13.752;2023-05-18T05:01:39;10.90;99.90
816;DHT22;25928;51.062;13.752;2023-05-18T05:04:04;11.10;99.90
816;DHT22;25928;51.062;13.752;2023-05-18T05:06:30;11.10;99.90
816;DHT22;25928;51.062;13.752;2023-05-18T05:08:56;11.10;99.90
816;DHT22;25928;51.062;13.752;2023-05-18T05:11:22;11.20;99.90
816;DHT22;25928;51.062;13.752;2023-05-18T05:13:47;11.30;99.90
816;DHT22;25928;51.062;13.752;2023-05-18T05:16:13;11.40;99.90
816;DHT22;25928;51.062;13.752;2023-05-18T05:18:38;11.40;99.90
816;DHT22;25928;51.062;13.752;2023-05-18T05:21:04;11.50;99.90
816;DHT22;25928;51.062;13.752;2023-05-18T05:23:30;11.70;99.90
816;DHT22;25928;51.062;13.752;2023-05-18T05:25:56;11.70;99.90
816;DHT22;25928;51.062;13.752;2023-05-18T05:28:22;11.80;99.90
816;DHT22;25928;51.062;13.752;2023-05-18T05:30:47;11.90;99.90
816;DHT22;25928;51.062;13.752;2023-05-18T05:33:13;11.90;99.90
816;DHT22;25928;51.062;13.752;2023-05-18T05:35:39;12.00;99.90
816;DHT22;25928;51.062;13.752;2023-05-18T05:38:04;12.20;99.90
816;DHT22;25928;51.062;13.752;2023-05-18T05:40:31;12.40;99.90
816;DHT22;25928;51.062;13.752;2023-05-18T05:42:56;12.60;99.90
816;DHT22;25928;51.062;13.752;2023-05-18T05:45:22;12.70;99.90
816;DHT22;25928;51.062;13.752;2023-05-18T05:47:48;12.80;99.90
816;DHT22;25928;51.062;13.752;2023-05-18T05:50:14;13.00;99.90
816;DHT22;25928;51.062;13.752;2023-05-18T05:52:40;13.00;99.90
816;DHT22;25928;51.062;13.752;2023-05-18T05:55:06;13.20;99.90
816;DHT22;25928;51.062;13.752;2023-05-18T05:57:31;13.30;99.90
816;DHT22;25928;51.062;13.752;2023-05-18T05:59:57;13.30;99.90
816;DHT22;25928;51.062;13.752;2023-05-18T06:02:23;13.40;99.90
816;DHT22;25928;51.062;13.752;2023-05-18T06:04:48;13.40;99.90
816;DHT22;25928;51.062;13.752;2023-05-18T06:07:14;13.50;99.90
816;DHT22;25928;51.062;13.752;2023-05-18T06:09:39;13.30;99.90
816;DHT22;25928;51.062;13.752;2023-05-18T06:12:06;13.40;99.90
816;DHT22;25928;51.062;13.752;2023-05-18T06:14:31;13.50;99.90
816;DHT22;25928;51.062;13.752;2023-05-18T06:16:57;13.60;99.90
816;DHT22;25928;51.062;13.752;2023-05-18T06:19:23;13.70;99.90
816;DHT22;25928;51.062;13.752;2023-05-18T06:21:48;13.70;99.90
816;DHT22;25928;51.062;13.752;2023-05-18T06:24:14;13.70;99.90
816;DHT22;25928;51.062;13.752;2023-05-18T06:26:40;13.80;99.90
816;DHT22;25928;51.062;13.752;2023-05-18T06:29:05;13.80;99.90
816;DHT22;25928;51.062;13.752;2023-05-18T06:31:33;13.90;99.90
816;DHT22;25928;51.062;13.752;2023-05-18T06:33:59;13.90;99.90
816;DHT22;25928;51.062;13.752;2023-05-18T06:36:25;13.90;99.90
816;DHT22;25928;51.062;13.752;2023-05-18T06:38:50;13.80;99.90
816;DHT22;25928;51.062;13.752;2023-05-18T06:41:16;13.80;99.90
816;DHT22;25928;51.062;13.752;2023-05-18T06:43:41;13.80;99.90
816;DHT22;25928;51.062;13.752;2023-05-18T06:46:07;14.00;99.90
816;DHT22;25928;51.062;13.752;2023-05-18T06:48:33;14.30;99.90
816;DHT22;25928;51.062;13.752;2023-05-18T06:50:58;14.50;99.90
816;DHT22;25928;51.062;13.752;2023-05-18T06:53:24;14.40;99.90
816;DHT22;25928;51.062;13.752;2023-05-18T06:55:50;14.40;99.90
816;DHT22;25928;51.062;13.752;2023-05-18T06:58:16;14.40;99.90
816;DHT22;25928;51.062;13.752;2023-05-18T07:00:41;14.40;99.90
816;DHT22;25928;51.062;13.752;2023-05-18T07:03:07;14.40;99.90
816;DHT22;25928;51.062;13.752;2023-05-18T07:05:33;14.50;99.90
816;DHT22;25928;51.062;13.752;2023-05-18T07:07:58;14.60;99.90
816;DHT22;25928;51.062;13.752;2023-05-18T07:10:24;14.70;99.90
816;DHT22;25928;51.062;13.752;2023-05-18T07:12:50;14.80;99.90
816;DHT22;25928;51.062;13.752;2023-05-18T07:15:15;14.80;99.90
816;DHT22;25928;51.062;13.752;2023-05-18T07:17:41;15.00;99.90
816;DHT22;25928;51.062;13.752;2023-05-18T07:20:07;15.20;99.90
816;DHT22;25928;51.062;13.752;2023-05-18T07:22:33;15.20;99.90
816;DHT22;25928;51.062;13.752;2023-05-18T07:24:59;15.20;99.90
816;DHT22;25928;51.062;13.752;2023-05-18T07:27:26;15.20;99.90
816;DHT22;25928;51.062;13.752;2023-05-18T07:29:52;15.10;99.90
816;DHT22;25928;51.062;13.752;2023-05-18T07:32:18;15.00;99.90
816;DHT22;25928;51.062;13.752;2023-05-18T07:34:43;15.00;99.90
816;DHT22;25928;51.062;13.752;2023-05-18T07:37:11;15.00;99.90
816;DHT22;25928;51.062;13.752;2023-05-18T07:39:36;15.10;99.90
816;DHT22;25928;51.062;13.752;2023-05-18T07:42:03;15.10;99.90
816;DHT22;25928;51.062;13.752;2023-05-18T07:44:29;15.00;99.90
816;DHT22;25928;51.062;13.752;2023-05-18T07:46:54;14.90;99.90
816;DHT22;25928;51.062;13.752;2023-05-18T07:49:20;14.70;99.90
816;DHT22;25928;51.062;13.752;2023-05-18T07:51:48;14.90;99.90
816;DHT22;25928;51.062;13.752;2023-05-18T07:54:14;15.30;99.90
816;DHT22;25928;51.062;13.752;2023-05-18T07:56:40;15.60;99.90
816;DHT22;25928;51.062;13.752;2023-05-18T07:59:07;15.80;99.90
816;DHT22;25928;51.062;13.752;2023-05-18T08:01:32;15.80;99.90
816;DHT22;25928;51.062;13.752;2023-05-18T08:03:58;15.60;99.90
816;DHT22;25928;51.062;13.752;2023-05-18T08:06:23;15.50;99.90
816;DHT22;25928;51.062;13.752;2023-05-18T08:08:49;15.30;99.90
816;DHT22;25928;51.062;13.752;2023-05-18T08:11:15;15.30;99.90
816;DHT22;25928;51.062;13.752;2023-05-18T08:13:40;15.40;99.90
816;DHT22;25928;51.062;13.752;2023-05-18T08:16:06;15.20;99.90
816;DHT22;25928;51.062;13.752;2023-05-18T08:18:32;15.00;99.90
816;DHT22;25928;51.062;13.752;2023-05-18T08:20:57;15.10;99.90
816;DHT22;25928;51.062;13.752;2023-05-18T08:23:23;15.30;99.90
816;DHT22;25928;51.062;13.752;2023-05-18T08:25:49;15.80;99.90
816;DHT22;25928;51.062;13.752;2023-05-18T08:28:15;15.90;99.90
816;DHT22;25928;51.062;13.752;2023-05-18T08:30:41;15.90;99.90
816;DHT22;25928;51.062;13.752;2023-05-18T08:33:07;16.20;99.90
816;DHT22;25928;51.062;13.752;2023-05-18T08:35:33;16.30;99.90
816;DHT22;25928;51.062;13.752;2023-05-18T08:37:59;16.00;99.90
816;DHT22;25928;51.062;13.752;2023-05-18T08:40:36;15.70;99.90
816;DHT22;25928;51.062;13.752;2023-05-18T08:43:06;15.30;99.90
816;DHT22;25928;51.062;13.752;2023-05-18T08:45:40;15.10;99.90
816;DHT22;25928;51.062;13.752;2023-05-18T08:48:11;15.00;99.90
816;DHT22;25928;51.062;13.752;2023-05-18T08:50:37;15.00;99.90
816;DHT22;25928;51.062;13.752;2023-05-18T08:53:05;15.20;99.90
816;DHT22;25928;51.062;13.752;2023-05-18T08:55:31;15.40;99.90
816;DHT22;25928;51.062;13.752;2023-05-18T08:58:02;15.60;99.90
816;DHT22;25928;51.062;13.752;2023-05-18T09:00:28;15.80;99.90
816;DHT22;25928;51.062;13.752;2023-05-18T09:02:55;16.10;99.90
816;DHT22;25928;51.062;13.752;2023-05-18T09:05:22;16.40;99.90
816;DHT22;25928;51.062;13.752;2023-05-18T09:07:51;16.50;99.90
816;DHT22;25928;51.062;13.752;2023-05-18T09:10:17;16.70;99.90
816;DHT22;25928;51.062;13.752;2023-05-18T09:12:44;16.90;99.90
816;DHT22;25928;51.062;13.752;2023-05-18T09:15:14;17.00;99.90
816;DHT22;25928;51.062;13.752;2023-05-18T09:17:40;17.40;99.90
816;DHT22;25928;51.062;13.752;2023-05-18T09:20:06;17.80;99.90
816;DHT22;25928;51.062;13.752;2023-05-18T09:22:33;18.40;99.90
816;DHT22;25928;51.062;13.752;2023-05-18T09:25:09;18.80;99.90
816;DHT22;25928;51.062;13.752;2023-05-18T09:27:35;18.10;99.90
816;DHT22;25928;51.062;13.752;2023-05-18T09:30:01;17.30;99.90
816;DHT22;25928;51.062;13.752;2023-05-18T09:32:27;16.80;99.90
816;DHT22;25928;51.062;13.752;2023-05-18T09:34:54;16.70;99.90
816;DHT22;25928;51.062;13.752;2023-05-18T09:37:21;17.10;99.90
816;DHT22;25928;51.062;13.752;2023-05-18T09:40:03;17.50;99.90
816;DHT22;25928;51.062;13.752;2023-05-18T09:42:40;17.40;99.90
816;DHT22;25928;51.062;13.752;2023-05-18T09:45:20;17.40;99.90
816;DHT22;25928;51.062;13.752;2023-05-18T09:47:49;17.10;99.90
816;DHT22;25928;51.062;13.752;2023-05-18T09:50:18;17.30;99.90
816;DHT22;25928;51.062;13.752;2023-05-18T09:52:45;17.70;99.90
816;DHT22;25928;51.062;13.752;2023-05-18T09:55:11;18.00;99.90
816;DHT22;25928;51.062;13.752;2023-05-18T09:57:42;18.00;99.90
816;DHT22;25928;51.062;13.752;2023-05-18T10:00:09;17.40;99.90
816;DHT22;25928;51.062;13.752;2023-05-18T10:02:44;17.40;99.90
816;DHT22;25928;51.062;13.752;2023-05-18T10:05:26;17.80;99.90
816;DHT22;25928;51.062;13.752;2023-05-18T10:07:53;18.20;99.90
816;DHT22;25928;51.062;13.752;2023-05-18T10:10:21;18.80;99.90
816;DHT22;25928;51.062;13.752;2023-05-18T10:12:49;19.30;99.90
816;DHT22;25928;51.062;13.752;2023-05-18T10:15:17;19.00;99.90
816;DHT22;25928;51.062;13.752;2023-05-18T10:17:44;18.80;99.90
816;DHT22;25928;51.062;13.752;2023-05-18T10:20:10;19.00;99.90
816;DHT22;25928;51.062;13.752;2023-05-18T10:22:39;18.90;99.90
816;DHT22;25928;51.062;13.752;2023-05-18T10:25:07;18.60;99.90
816;DHT22;25928;51.062;13.752;2023-05-18T10:27:35;18.90;99.90
816;DHT22;25928;51.062;13.752;2023-05-18T10:30:01;19.20;99.90
816;DHT22;25928;51.062;13.752;2023-05-18T10:32:34;18.90;99.90
816;DHT22;25928;51.062;13.752;2023-05-18T10:35:02;18.20;99.90
816;DHT22;25928;51.062;13.752;2023-05-18T10:37:30;18.10;99.90
816;DHT22;25928;51.062;13.752;2023-05-18T10:39:59;18.60;99.90
816;DHT22;25928;51.062;13.752;2023-05-18T10:42:25;18.70;99.90
816;DHT22;25928;51.062;13.752;2023-05-18T10:44:52;18.50;99.90
816;DHT22;25928;51.062;13.752;2023-05-18T10:47:19;18.20;99.90
816;DHT22;25928;51.062;13.752;2023-05-18T10:49:48;18.40;99.90
816;DHT22;25928;51.062;13.752;2023-05-18T10:52:16;18.60;99.90
816;DHT22;25928;51.062;13.752;2023-05-18T10:54:42;19.10;99.90
816;DHT22;25928;51.062;13.752;2023-05-18T10:57:12;19.50;99.90
816;DHT22;25928;51.062;13.752;2023-05-18T10:59:41;19.80;99.90
816;DHT22;25928;51.062;13.752;2023-05-18T11:02:09;20.20;99.90
816;DHT22;25928;51.062;13.752;2023-05-18T11:04:40;20.40;99.90
816;DHT22;25928;51.062;13.752;2023-05-18T11:07:13;19.70;99.90
816;DHT22;25928;51.062;13.752;2023-05-18T11:09:43;18.80;99.90
816;DHT22;25928;51.062;13.752;2023-05-18T11:12:13;18.50;99.90
816;DHT22;25928;51.062;13.752;2023-05-18T11:14:49;18.90;99.90
816;DHT22;25928;51.062;13.752;2023-05-18T11:28:01;18.40;99.90
816;DHT22;25928;51.062;13.752;2023-05-18T11:35:32;18.70;99.90
816;DHT22;25928;51.062;13.752;2023-05-18T11:38:06;18.90;99.90
816;DHT22;25928;51.062;13.752;2023-05-18T11:40:53;19.60;99.90
816;DHT22;25928;51.062;13.752;2023-05-18T11:43:24;19.80;99.90
816;DHT22;25928;51.062;13.752;2023-05-18T11:45:58;19.90;99.90
816;DHT22;25928;51.062;13.752;2023-05-18T11:48:27;20.00;99.90
816;DHT22;25928;51.062;13.752;2023-05-18T11:50:54;19.60;99.90
816;DHT22;25928;51.062;13.752;2023-05-18T11:53:25;19.70;99.90
816;DHT22;25928;51.062;13.752;2023-05-18T11:55:54;19.90;99.90
816;DHT22;25928;51.062;13.752;2023-05-18T11:58:23;20.30;99.90
816;DHT22;25928;51.062;13.752;2023-05-18T12:00:49;20.60;99.90
816;DHT22;25928;51.062;13.752;2023-05-18T12:03:16;21.20;99.90
816;DHT22;25928;51.062;13.752;2023-05-18T12:05:42;20.70;99.90
816;DHT22;25928;51.062;13.752;2023-05-18T12:08:19;20.50;99.90
816;DHT22;25928;51.062;13.752;2023-05-18T12:10:45;19.70;99.90
816;DHT22;25928;51.062;13.752;2023-05-18T12:13:16;19.80;99.90
816;DHT22;25928;51.062;13.752;2023-05-18T12:15:42;19.90;99.90
816;DHT22;25928;51.062;13.752;2023-05-18T12:18:09;19.90;99.90
816;DHT22;25928;51.062;13.752;2023-05-18T12:20:38;19.40;99.90
816;DHT22;25928;51.062;13.752;2023-05-18T12:23:04;19.20;99.90
816;DHT22;25928;51.062;13.752;2023-05-18T12:25:29;19.30;99.90
816;DHT22;25928;51.062;13.752;2023-05-18T12:27:55;19.50;99.90
816;DHT22;25928;51.062;13.752;2023-05-18T12:30:22;19.80;99.90
816;DHT22;25928;51.062;13.752;2023-05-18T12:32:54;20.00;99.90
816;DHT22;25928;51.062;13.752;2023-05-18T12:35:26;19.90;99.90
816;DHT22;25928;51.062;13.752;2023-05-18T12:37:53;20.00;99.90
816;DHT22;25928;51.062;13.752;2023-05-18T12:40:34;20.20;99.90
816;DHT22;25928;51.062;13.752;2023-05-18T12:43:12;20.30;99.90
816;DHT22;25928;51.062;13.752;2023-05-18T12:45:38;20.30;99.90
816;DHT22;25928;51.062;13.752;2023-05-18T12:48:10;20.30;99.90
816;DHT22;25928;51.062;13.752;2023-05-18T12:50:49;20.60;99.90
816;DHT22;25928;51.062;13.752;2023-05-18T12:53:17;21.00;99.90
816;DHT22;25928;51.062;13.752;2023-05-18T12:55:43;20.80;99.90
816;DHT22;25928;51.062;13.752;2023-05-18T13:00:42;20.20;99.90
816;DHT22;25928;51.062;13.752;2023-05-18T13:03:16;20.00;99.90
816;DHT22;25928;51.062;13.752;2023-05-18T13:05:44;20.40;99.90
816;DHT22;25928;51.062;13.752;2023-05-18T13:08:13;20.40;99.90
816;DHT22;25928;51.062;13.752;2023-05-18T13:10:44;20.50;99.90
816;DHT22;25928;51.062;13.752;2023-05-18T13:13:14;19.90;99.90
816;DHT22;25928;51.062;13.752;2023-05-18T13:15:41;19.90;99.90
816;DHT22;25928;51.062;13.752;2023-05-18T13:18:09;20.40;99.90
816;DHT22;25928;51.062;13.752;2023-05-18T13:20:38;20.10;99.90
816;DHT22;25928;51.062;13.752;2023-05-18T13:23:12;19.70;99.90
816;DHT22;25928;51.062;13.752;2023-05-18T13:25:39;19.20;99.90
816;DHT22;25928;51.062;13.752;2023-05-18T13:28:05;19.30;99.90
816;DHT22;25928;51.062;13.752;2023-05-18T13:30:32;19.40;99.90
816;DHT22;25928;51.062;13.752;2023-05-18T13:32:58;19.30;99.90
816;DHT22;25928;51.062;13.752;2023-05-18T13:35:24;19.00;99.90
816;DHT22;25928;51.062;13.752;2023-05-18T13:37:50;18.70;99.90
816;DHT22;25928;51.062;13.752;2023-05-18T13:40:17;18.90;99.90
816;DHT22;25928;51.062;13.752;2023-05-18T13:42:44;18.90;99.90
816;DHT22;25928;51.062;13.752;2023-05-18T13:45:10;18.90;99.90
816;DHT22;25928;51.062;13.752;2023-05-18T13:47:37;18.70;99.90
816;DHT22;25928;51.062;13.752;2023-05-18T13:50:04;18.80;99.90
816;DHT22;25928;51.062;13.752;2023-05-18T13:52:30;19.20;99.90
816;DHT22;25928;51.062;13.752;2023-05-18T13:54:56;19.20;99.90
816;DHT22;25928;51.062;13.752;2023-05-18T13:57:21;19.40;99.90
816;DHT22;25928;51.062;13.752;2023-05-18T13:59:50;19.50;99.90
816;DHT22;25928;51.062;13.752;2023-05-18T14:02:17;19.60;99.90
816;DHT22;25928;51.062;13.752;2023-05-18T14:04:43;20.20;99.90
816;DHT22;25928;51.062;13.752;2023-05-18T14:07:09;20.30;99.90
816;DHT22;25928;51.062;13.752;2023-05-18T14:09:35;20.00;99.90
816;DHT22;25928;51.062;13.752;2023-05-18T14:12:01;20.00;99.90
816;DHT22;25928;51.062;13.752;2023-05-18T14:14:29;19.60;99.90
816;DHT22;25928;51.062;13.752;2023-05-18T14:16:55;19.30;99.90
816;DHT22;25928;51.062;13.752;2023-05-18T14:19:21;19.00;99.90
816;DHT22;25928;51.062;13.752;2023-05-18T14:21:46;19.40;99.90
816;DHT22;25928;51.062;13.752;2023-05-18T14:24:12;21.20;99.90
816;DHT22;25928;51.062;13.752;2023-05-18T14:26:39;22.40;99.90
816;DHT22;25928;51.062;13.752;2023-05-18T14:29:05;21.70;99.90
816;DHT22;25928;51.062;13.752;2023-05-18T14:31:31;21.30;99.90
816;DHT22;25928;51.062;13.752;2023-05-18T14:33:56;21.00;99.90
816;DHT22;25928;51.062;13.752;2023-05-18T14:36:22;21.40;99.90
816;DHT22;25928;51.062;13.752;2023-05-18T14:38:48;21.70;99.90
816;DHT22;25928;51.062;13.752;2023-05-18T14:41:13;21.40;99.90
816;DHT22;25928;51.062;13.752;2023-05-18T14:43:39;21.30;99.90
816;DHT22;25928;51.062;13.752;2023-05-18T14:46:05;21.00;99.90
816;DHT22;25928;51.062;13.752;2023-05-18T14:48:30;20.40;99.90
816;DHT22;25928;51.062;13.752;2023-05-18T14:50:56;19.80;99.90
816;DHT22;25928;51.062;13.752;2023-05-18T14:53:21;20.00;99.90
816;DHT22;25928;51.062;13.752;2023-05-18T14:55:47;20.80;99.90
816;DHT22;25928;51.062;13.752;2023-05-18T14:58:13;22.20;99.90
816;DHT22;25928;51.062;13.752;2023-05-18T15:00:42;23.80;99.90
816;DHT22;25928;51.062;13.752;2023-05-18T15:03:08;24.30;99.90
816;DHT22;25928;51.062;13.752;2023-05-18T15:05:34;25.50;99.90
816;DHT22;25928;51.062;13.752;2023-05-18T15:08:00;26.60;99.90
816;DHT22;25928;51.062;13.752;2023-05-18T15:10:26;25.60;99.90
816;DHT22;25928;51.062;13.752;2023-05-18T15:12:51;24.30;99.90
816;DHT22;25928;51.062;13.752;2023-05-18T15:15:17;23.50;99.90
816;DHT22;25928;51.062;13.752;2023-05-18T15:17:43;23.40;99.90
816;DHT22;25928;51.062;13.752;2023-05-18T15:20:09;22.10;99.90
816;DHT22;25928;51.062;13.752;2023-05-18T15:22:35;21.90;99.90
816;DHT22;25928;51.062;13.752;2023-05-18T15:25:06;21.90;99.90
816;DHT22;25928;51.062;13.752;2023-05-18T15:27:32;22.20;99.90
816;DHT22;25928;51.062;13.752;2023-05-18T15:29:58;22.00;99.90
816;DHT22;25928;51.062;13.752;2023-05-18T15:32:24;21.60;99.90
816;DHT22;25928;51.062;13.752;2023-05-18T15:34:50;21.10;99.90
816;DHT22;25928;51.062;13.752;2023-05-18T15:37:17;20.50;99.90
816;DHT22;25928;51.062;13.752;2023-05-18T15:39:43;20.50;99.90
816;DHT22;25928;51.062;13.752;2023-05-18T15:42:08;20.60;99.90
816;DHT22;25928;51.062;13.752;2023-05-18T15:44:34;20.70;99.90
816;DHT22;25928;51.062;13.752;2023-05-18T15:47:00;20.20;99.90
816;DHT22;25928;51.062;13.752;2023-05-18T15:49:26;19.60;99.90
816;DHT22;25928;51.062;13.752;2023-05-18T15:51:51;19.30;99.90
816;DHT22;25928;51.062;13.752;2023-05-18T15:54:17;19.40;99.90
816;DHT22;25928;51.062;13.752;2023-05-18T15:56:43;19.90;99.90
816;DHT22;25928;51.062;13.752;2023-05-18T15:59:08;20.10;99.90
816;DHT22;25928;51.062;13.752;2023-05-18T16:01:34;20.30;99.90
816;DHT22;25928;51.062;13.752;2023-05-18T16:04:00;20.00;99.90
816;DHT22;25928;51.062;13.752;2023-05-18T16:06:26;20.10;99.90
816;DHT22;25928;51.062;13.752;2023-05-18T16:08:51;20.30;99.90
816;DHT22;25928;51.062;13.752;2023-05-18T16:11:17;20.00;99.90
816;DHT22;25928;51.062;13.752;2023-05-18T16:13:42;19.90;99.90
816;DHT22;25928;51.062;13.752;2023-05-18T16:16:08;19.70;99.90
816;DHT22;25928;51.062;13.752;2023-05-18T16:18:37;19.40;99.90